Time;durP1;ratioP1;P1;durP2;ratioP2;P2;SDS_P1;SDS_P2;PMS_P1;PMS_P2;Temp;Humidity;BMP_temperature;BMP_pressure;BME280_temperature;BME280_humidity;BME280_pressure;Samples;Min_cycle;Max_cycle;Signal;HPM_P1;HPM_P2
2022/05/06 00:04:18;;;;;;;;;;;;;;;18.54;67.19;101640.31;7393694;19;1211;-56
2022/05/06 00:09:42;;;;;;;;;;;;;;;18.55;66.86;101641.19;7401328;19;686;-60
2022/05/06 00:15:08;;;;;;;;;;;;;;;18.52;67.18;101628.84;7399735;19;710;-61
2022/05/06 00:20:35;;;;;;;;;;;;;;;18.54;66.89;101640.31;7400758;19;734;-61
2022/05/06 00:25:59;;;;;;;;;;;;;;;18.52;67.15;101631.53;7400585;19;781;-61
2022/05/06 00:31:23;;;;;;;;;;;;;;;18.51;67.08;101651.25;7399731;19;757;-61
2022/05/06 00:36:49;;;;;;;;;;;;;;;18.51;66.95;101653.94;7400636;19;714;-60
2022/05/06 00:42:13;;;;;;;;;;;;;;;18.49;66.90;101654.03;7399889;19;773;-60
2022/05/06 00:47:37;;;;;;;;;;;;;;;18.49;67.28;101654.03;7399733;19;698;-60
2022/05/06 00:53:06;;;;;;;;;;;;;;;18.51;67.13;101651.25;7398073;19;1857;-55
2022/05/06 00:58:31;;;;;;;;;;;;;;;18.48;67.16;101644.31;7399622;19;769;-55
2022/05/06 01:03:54;;;;;;;;;;;;;;;19.41;64.81;101630.28;7407514;19;1175;-60
2022/05/06 01:09:21;;;;;;;;;;;;;;;20.01;63.07;101628.38;7406767;19;693;-60
2022/05/06 01:14:45;;;;;;;;;;;;;;;19.43;64.61;101623.00;7406990;19;695;-60
2022/05/06 01:20:09;;;;;;;;;;;;;;;19.83;63.67;101641.41;7406211;19;726;-60
2022/05/06 01:25:35;;;;;;;;;;;;;;;19.30;65.05;101648.19;7406927;19;702;-61
2022/05/06 01:31:01;;;;;;;;;;;;;;;19.64;64.38;101630.38;7406098;19;785;-60
2022/05/06 01:36:27;;;;;;;;;;;;;;;19.47;64.95;101619.09;7405125;19;747;-55
2022/05/06 01:41:55;;;;;;;;;;;;;;;19.42;64.64;101628.50;7405141;19;718;-55
2022/05/06 01:47:21;;;;;;;;;;;;;;;19.83;63.79;101630.66;7405717;19;761;-56
2022/05/06 01:52:46;;;;;;;;;;;;;;;19.32;65.39;101622.97;7404948;19;1865;-60
2022/05/06 01:58:12;;;;;;;;;;;;;;;19.75;63.84;101611.63;7404968;19;765;-60
2022/05/06 02:09:12;;;;;;;;;;;;;;;19.56;64.39;101612.19;7403640;19;769;-61
2022/05/06 02:14:39;;;;;;;;;;;;;;;19.66;64.65;101623.91;7404561;19;749;-61
2022/05/06 02:20:04;;;;;;;;;;;;;;;19.50;64.53;101627.88;7404318;19;758;-61
2022/05/06 02:25:27;;;;;;;;;;;;;;;19.83;63.86;101625.28;7404011;19;801;-61
2022/05/06 02:36:30;;;;;;;;;;;;;;;19.70;64.34;101626.38;7404091;19;691;-61
2022/05/06 02:41:54;;;;;;;;;;;;;;;19.48;64.53;101631.56;7403531;19;722;-61
2022/05/06 02:47:21;;;;;;;;;;;;;;;19.60;64.62;101623.53;7402837;19;781;-61
2022/05/06 02:52:45;;;;;;;;;;;;;;;19.61;64.50;101633.28;7402616;19;1837;-61
2022/05/06 02:58:09;;;;;;;;;;;;;;;19.52;64.82;101629.50;7403255;19;715;-61
2022/05/06 03:03:36;;;;;;;;;;;;;;;19.88;63.66;101637.53;7403264;19;773;-55
2022/05/06 03:09:00;;;;;;;;;;;;;;;19.44;65.41;101632.75;7402302;19;765;-55
2022/05/06 03:14:23;;;;;;;;;;;;;;;19.86;64.16;101657.28;7403400;19;749;-56
2022/05/06 03:19:50;;;;;;;;;;;;;;;19.46;64.86;101649.59;7402192;19;703;-60
2022/05/06 03:25:14;;;;;;;;;;;;;;;19.76;64.14;101653.59;7402159;19;675;-56
2022/05/06 03:30:40;;;;;;;;;;;;;;;19.45;65.15;101652.38;7401631;19;742;-60
2022/05/06 03:36:07;;;;;;;;;;;;;;;19.70;64.13;101656.72;7401371;19;699;-60
2022/05/06 03:41:30;;;;;;;;;;;;;;;19.67;64.19;101657.81;7401284;19;695;-60
2022/05/06 03:46:54;;;;;;;;;;;;;;;19.57;64.74;101655.97;7401089;19;710;-54
2022/05/06 03:52:20;;;;;;;;;;;;;;;19.88;63.78;101656.31;7401135;19;1857;-55
2022/05/06 03:57:44;;;;;;;;;;;;;;;19.56;65.04;101659.63;7401159;19;734;-60
2022/05/06 04:03:08;;;;;;;;;;;;;;;19.34;65.53;101673.78;7399915;19;1369;-55
2022/05/06 04:08:35;;;;;;;;;;;;;;;19.30;65.19;101683.03;7400356;19;765;-60
2022/05/06 04:13:58;;;;;;;;;;;;;;;19.26;65.26;101677.94;7399472;19;1855;-55
2022/05/06 04:19:22;;;;;;;;;;;;;;;19.29;65.74;101687.56;7400079;19;715;-57
2022/05/06 04:24:50;;;;;;;;;;;;;;;19.26;65.75;101695.84;7400655;19;707;-55
2022/05/06 04:30:14;;;;;;;;;;;;;;;19.26;66.16;101703.88;7400084;19;769;-55
2022/05/06 04:35:38;;;;;;;;;;;;;;;19.25;66.33;101691.44;7402076;19;666;-60
2022/05/06 04:41:05;;;;;;;;;;;;;;;19.22;65.89;101695.22;7406785;19;734;-55
2022/05/06 04:46:28;;;;;;;;;;;;;;;19.27;65.85;101689.50;7407082;19;777;-55
2022/05/06 04:51:53;;;;;;;;;;;;;;;19.30;65.76;101697.31;7406956;19;707;-55
2022/05/06 04:57:20;;;;;;;;;;;;;;;19.34;65.46;101706.84;7407586;19;666;-61
2022/05/06 05:02:44;;;;;;;;;;;;;;;19.37;65.14;101706.59;7404536;19;1299;-60
2022/05/06 05:08:20;;;;;;;;;;;;;;;19.35;65.66;101689.78;7406222;19;769;-61
2022/05/06 05:13:46;;;;;;;;;;;;;;;19.35;65.65;101694.28;7405163;19;1849;-56
2022/05/06 05:19:10;;;;;;;;;;;;;;;19.36;65.59;101691.50;7406932;19;761;-60
2022/05/06 05:24:33;;;;;;;;;;;;;;;19.36;65.63;101712.97;7406134;19;726;-56
2022/05/06 05:30:01;;;;;;;;;;;;;;;19.35;66.23;101711.22;7405074;19;750;-60
2022/05/06 05:35:24;;;;;;;;;;;;;;;19.33;66.32;101721.22;7406075;19;707;-61
2022/05/06 05:40:48;;;;;;;;;;;;;;;19.60;65.35;101730.88;7405535;19;761;-60
2022/05/06 05:51:56;;;;;;;;;;;;;;;19.70;62.45;101710.41;7399952;19;707;-55
2022/05/06 05:57:20;;;;;;;;;;;;;;;19.75;63.00;101724.34;7404280;19;690;-60
2022/05/06 06:02:46;;;;;;;;;;;;;;;19.69;63.26;101724.78;7403392;19;1296;-55
2022/05/06 06:08:20;;;;;;;;;;;;;;;19.79;62.96;101720.44;7402686;19;793;-51
2022/05/06 06:13:44;;;;;;;;;;;;;;;19.86;62.41;101715.47;7403719;19;1852;-56
2022/05/06 06:19:10;;;;;;;;;;;;;;;19.92;62.90;101708.78;7404844;19;683;-57
2022/05/06 06:24:35;;;;;;;;;;;;;;;20.00;63.30;101709.06;7403206;19;710;-56
2022/05/06 06:29:58;;;;;;;;;;;;;;;19.92;62.41;101701.59;7402963;19;750;-59
2022/05/06 06:35:25;;;;;;;;;;;;;;;19.87;62.09;101695.72;7404658;19;741;-59
2022/05/06 06:40:49;;;;;;;;;;;;;;;19.93;60.70;101699.75;7403245;19;730;-59
2022/05/06 06:46:12;;;;;;;;;;;;;;;19.89;58.62;101693.75;7403703;19;706;-59
2022/05/06 06:51:39;;;;;;;;;;;;;;;20.02;57.98;101702.56;7403941;19;702;-60
2022/05/06 06:57:03;;;;;;;;;;;;;;;19.98;59.25;101689.53;7403403;19;690;-56
2022/05/06 07:02:28;;;;;;;;;;;;;;;19.97;58.59;101695.84;7398758;19;1303;-59
2022/05/06 07:13:33;;;;;;;;;;;;;;;19.88;57.44;101700.13;7402236;19;1856;-60
2022/05/06 07:18:57;;;;;;;;;;;;;;;19.90;57.09;101697.31;7403372;19;702;-59
2022/05/06 07:24:24;;;;;;;;;;;;;;;19.94;56.08;101712.22;7402435;19;718;-60
2022/05/06 07:29:48;;;;;;;;;;;;;;;19.96;57.33;101707.59;7402365;19;663;-56
2022/05/06 07:35:12;;;;;;;;;;;;;;;19.93;55.98;101700.59;7400025;19;1861;-57
2022/05/06 07:40:38;;;;;;;;;;;;;;;19.98;54.04;101692.22;7402002;19;718;-56
2022/05/06 07:46:02;;;;;;;;;;;;;;;20.02;54.12;101710.63;7401521;19;691;-60
2022/05/06 07:51:27;;;;;;;;;;;;;;;19.98;54.82;101701.09;7401774;19;690;-60
2022/05/06 07:56:53;;;;;;;;;;;;;;;19.91;54.96;101699.00;7400345;19;726;-56
2022/05/06 08:04:59;;;;;;;;;;;;;;;19.91;53.86;101696.34;7403754;19;1250;-56
2022/05/06 08:07:27;;;;;;;;;;;;;;;19.91;54.32;101707.91;7404598;19;1717;-56
2022/05/06 08:09:56;;;;;;;;;;;;;;;19.94;52.95;101712.22;7402132;19;1718;-57
2022/05/06 08:12:27;;;;;;;;;;;;;;;19.91;52.98;101702.53;7402607;19;1559;-56
2022/05/06 08:14:55;;;;;;;;;;;;;;;19.92;53.25;101698.06;7403433;19;1853;-57
2022/05/06 08:17:23;;;;;;;;;;;;;;;19.86;53.46;101699.38;7402680;19;1277;-56
2022/05/06 08:19:52;;;;;;;;;;;;;;;19.92;53.21;101708.78;7404084;19;1784;-56
2022/05/06 08:22:20;;;;;;;;;;;;;;;19.90;53.41;101722.31;7404874;19;1597;-56
2022/05/06 08:24:49;;;;;;;;;;;;;;;19.86;52.80;101710.13;7405124;19;1575;-56
2022/05/06 08:27:17;;;;;;;;;;;;;;;19.90;53.05;101705.38;7402917;19;1472;-58
2022/05/06 08:29:48;;;;;;;;;;;;;;;19.88;52.78;101707.31;7402633;19;1674;-59
2022/05/06 08:32:16;;;;;;;;;;;;;;;19.92;52.77;101711.47;7403482;19;1653;-59
2022/05/06 08:34:47;;;;;;;;;;;;;;;19.93;52.34;101705.97;7403022;19;1849;-60
2022/05/06 08:37:15;;;;;;;;;;;;;;;19.94;52.75;101701.47;7404716;19;1515;-60
2022/05/06 08:39:43;;;;;;;;;;;;;;;19.90;52.68;101700.84;7403538;19;1632;-60
2022/05/06 08:42:13;;;;;;;;;;;;;;;19.90;52.09;101721.47;7403223;19;1428;-60
2022/05/06 08:53:00;;;;;;;;;;;;;;;19.87;51.43;101711.81;7398064;19;1665;-60
2022/05/06 08:55:28;;;;;;;;;;;;;;;19.99;51.22;101710.84;7400894;19;1854;-56
2022/05/06 08:57:57;;;;;;;;;;;;;;;19.91;51.34;101707.06;7404369;19;1623;-56
2022/05/06 09:00:26;;;;;;;;;;;;;;;19.89;52.22;101698.28;7404694;19;1666;-60
2022/05/06 09:02:57;;;;;;;;;;;;;;;19.89;51.85;101692.91;7401180;19;1535;-56
2022/05/06 09:05:25;;;;;;;;;;;;;;;19.90;52.60;101683.91;7403060;19;1546;-60
2022/05/06 09:07:57;;;;;;;;;;;;;;;19.86;52.26;101694.00;7400427;19;1543;-60
2022/05/06 09:10:26;;;;;;;;;;;;;;;19.89;50.20;101692.91;7400316;19;1403;-58
2022/05/06 09:12:56;;;;;;;;;;;;;;;19.88;52.38;101680.47;7401094;19;1350;-60
2022/05/06 09:18:09;;;;;;;;;;;;;;;19.89;52.17;101700.97;7403481;19;1678;-56
2022/05/06 09:20:38;;;;;;;;;;;;;;;19.88;52.71;101692.06;7401870;19;1706;-56
2022/05/06 09:23:24;;;;;;;;;;;;;;;19.92;52.50;101693.53;7409064;19;1207;-57
2022/05/06 09:25:53;;;;;;;;;;;;;;;19.97;52.31;101690.47;7409794;19;1593;-60
2022/05/06 09:28:26;;;;;;;;;;;;;;;19.99;52.64;101699.28;7410135;19;1551;-60
2022/05/06 09:31:01;;;;;;;;;;;;;;;20.00;52.54;101684.88;7409551;19;1535;-58
2022/05/06 09:33:32;;;;;;;;;;;;;;;20.01;51.41;101687.44;7410236;19;1851;-60
2022/05/06 09:36:01;;;;;;;;;;;;;;;19.98;52.18;101690.38;7409328;19;1454;-56
2022/05/06 09:38:29;;;;;;;;;;;;;;;20.00;52.99;101690.25;7407992;19;1575;-60
2022/05/06 09:40:58;;;;;;;;;;;;;;;20.10;52.41;101680.50;7408395;19;1411;-60
2022/05/06 09:43:27;;;;;;;;;;;;;;;20.09;52.37;101677.94;7407785;19;1459;-56
2022/05/06 09:45:55;;;;;;;;;;;;;;;20.08;52.72;101676.25;7408701;19;1323;-56
2022/05/06 09:48:23;;;;;;;;;;;;;;;20.13;53.37;101682.94;7262081;19;16537;-60
2022/05/06 09:50:54;;;;;;;;;;;;;;;20.07;53.51;101670.00;7401839;19;1403;-60
2022/05/06 09:53:23;;;;;;;;;;;;;;;20.09;53.98;101673.41;7407839;19;1667;-60
2022/05/06 09:55:51;;;;;;;;;;;;;;;20.15;54.21;101675.59;7406395;19;1858;-58
2022/05/06 09:58:19;;;;;;;;;;;;;;;20.10;53.29;101680.50;7403966;19;1242;-56
2022/05/06 10:00:48;;;;;;;;;;;;;;;20.08;53.92;101681.59;7406754;19;1501;-60
2022/05/06 10:03:16;;;;;;;;;;;;;;;20.06;52.90;101673.66;7407740;19;1358;-56
2022/05/06 10:05:45;;;;;;;;;;;;;;;20.09;53.84;101673.41;7407415;19;1364;-60
2022/05/06 10:08:18;;;;;;;;;;;;;;;20.02;53.58;101667.69;7404738;19;1263;-60
2022/05/06 10:10:48;;;;;;;;;;;;;;;20.02;54.60;101669.50;7406585;19;1266;-60
2022/05/06 10:13:19;;;;;;;;;;;;;;;19.99;54.04;101667.91;7405758;19;1374;-58
2022/05/06 10:15:50;;;;;;;;;;;;;;;19.96;54.96;101675.38;7406089;19;1842;-60
2022/05/06 10:18:33;;;;;;;;;;;;;;;19.93;55.37;101670.22;7407319;19;1350;-56
2022/05/06 10:21:02;;;;;;;;;;;;;;;19.99;54.03;101662.53;7407069;19;1331;-60
2022/05/06 10:23:45;;;;;;;;;;;;;;;19.96;54.92;101651.19;7407727;19;1424;-56
2022/05/06 10:26:29;;;;;;;;;;;;;;;20.00;54.67;101671.47;7406104;19;1392;-56
2022/05/06 10:34:30;;;;;;;;;;;;;;;20.03;55.23;101655.09;6362841;19;10000354;-56
2022/05/06 10:37:01;;;;;;;;;;;;;;;20.00;55.91;101666.09;7395166;19;1553;-56
2022/05/06 10:39:30;;;;;;;;;;;;;;;19.93;56.01;101667.53;7398696;19;1536;-55
2022/05/06 10:42:02;;;;;;;;;;;;;;;19.84;55.91;101656.53;7401143;19;1223;-57
2022/05/06 10:44:37;;;;;;;;;;;;;;;19.78;56.27;101653.50;7401601;19;1521;-56
2022/05/06 10:47:06;;;;;;;;;;;;;;;19.77;55.68;101652.63;7399170;19;1647;-56
2022/05/06 10:49:50;;;;;;;;;;;;;;;19.76;55.68;101661.66;7401624;19;1533;-56
2022/05/06 10:52:33;;;;;;;;;;;;;;;19.75;55.97;101643.84;7400517;19;1525;-56
2022/05/06 10:55:03;;;;;;;;;;;;;;;19.75;55.56;101641.16;7400792;19;1853;-59
2022/05/06 10:57:32;;;;;;;;;;;;;;;19.72;55.66;101630.66;7400168;19;1349;-56
2022/05/06 11:00:06;;;;;;;;;;;;;;;19.68;55.63;101627.31;7399722;19;1446;-56
2022/05/06 11:02:36;;;;;;;;;;;;;;;19.71;55.04;101625.38;7397746;19;1508;-56
2022/05/06 11:05:05;;;;;;;;;;;;;;;19.70;54.05;101623.69;7399577;19;1599;-56
2022/05/06 11:07:34;;;;;;;;;;;;;;;19.68;53.68;101634.53;7398013;19;1340;-56
2022/05/06 11:10:09;;;;;;;;;;;;;;;19.70;53.80;101624.53;7400376;19;1517;-60
2022/05/06 11:12:38;;;;;;;;;;;;;;;19.67;54.24;101619.38;7400698;19;1532;-60
2022/05/06 11:15:10;;;;;;;;;;;;;;;19.67;53.63;101624.75;7398429;19;1849;-60
2022/05/06 11:17:39;;;;;;;;;;;;;;;19.64;53.79;101612.44;7398775;19;1502;-60
2022/05/06 11:20:17;;;;;;;;;;;;;;;19.63;52.92;101612.56;7401530;19;1324;-60
2022/05/06 11:22:55;;;;;;;;;;;;;;;19.68;52.45;101605.00;7399517;19;1512;-60
2022/05/06 11:25:24;;;;;;;;;;;;;;;19.67;52.40;101611.34;7399054;19;1508;-56
2022/05/06 11:27:53;;;;;;;;;;;;;;;19.70;51.19;101613.81;7399830;19;1714;-56
2022/05/06 11:30:24;;;;;;;;;;;;;;;19.74;52.05;101609.09;7399165;19;1521;-56
2022/05/06 11:32:54;;;;;;;;;;;;;;;19.80;51.56;101603.25;7404192;19;1532;-56
2022/05/06 11:35:24;;;;;;;;;;;;;;;19.75;50.78;101595.53;7401764;19;1859;-56
2022/05/06 11:37:52;;;;;;;;;;;;;;;19.72;51.27;101600.31;7404795;19;1565;-56
2022/05/06 11:40:37;;;;;;;;;;;;;;;19.76;51.30;101597.25;7404407;19;1144;-54
2022/05/06 11:43:09;;;;;;;;;;;;;;;19.89;51.14;101591.75;7405767;19;1535;-62
2022/05/06 11:48:22;;;;;;;;;;;;;;;19.94;50.96;101578.84;7403551;19;1266;-65
2022/05/06 11:50:55;;;;;;;;;;;;;;;19.97;51.18;101580.41;7404843;19;1544;-56
2022/05/06 11:53:26;;;;;;;;;;;;;;;19.85;51.15;101575.03;7403750;19;1690;-60
2022/05/06 11:55:55;;;;;;;;;;;;;;;19.82;51.57;101595.91;7403002;19;1844;-56
2022/05/06 11:58:24;;;;;;;;;;;;;;;19.76;52.03;101591.03;7405009;19;1434;-56
2022/05/06 12:00:55;;;;;;;;;;;;;;;19.74;51.42;101583.09;7403863;19;1722;-60
2022/05/06 12:03:25;;;;;;;;;;;;;;;19.67;51.75;101565.72;7405421;19;1753;-56
2022/05/06 12:06:04;;;;;;;;;;;;;;;19.66;52.06;101585.50;7404030;19;1655;-60
2022/05/06 12:08:34;;;;;;;;;;;;;;;19.66;51.22;101590.88;7401323;19;1786;-56
2022/05/06 12:11:03;;;;;;;;;;;;;;;19.67;51.54;101579.13;7404033;19;1334;-56
2022/05/06 12:13:40;;;;;;;;;;;;;;;19.66;50.74;101589.03;7403869;19;1425;-56
2022/05/06 12:16:12;;;;;;;;;;;;;;;19.65;50.86;101578.41;7403841;19;1855;-61
2022/05/06 12:18:53;;;;;;;;;;;;;;;19.62;51.56;101558.03;7404738;19;1672;-59
2022/05/06 12:21:23;;;;;;;;;;;;;;;19.64;51.48;101556.09;7402818;19;1421;-60
2022/05/06 12:23:53;;;;;;;;;;;;;;;19.60;51.58;101559.16;7403866;19;1354;-60
2022/05/06 12:26:30;;;;;;;;;;;;;;;19.58;51.29;101559.25;7403188;19;1611;-56
2022/05/06 12:28:59;;;;;;;;;;;;;;;19.58;51.32;101566.47;7403685;19;1556;-60
2022/05/06 12:31:31;;;;;;;;;;;;;;;19.55;51.71;101562.16;7402954;19;1386;-57
2022/05/06 12:34:03;;;;;;;;;;;;;;;19.55;51.72;101555.97;7404738;19;1610;-60
2022/05/06 12:36:32;;;;;;;;;;;;;;;19.59;51.17;101560.09;7401329;19;1845;-57
2022/05/06 12:39:00;;;;;;;;;;;;;;;19.56;51.15;101555.00;7403282;19;1375;-59
2022/05/06 12:41:35;;;;;;;;;;;;;;;19.55;51.16;101561.31;7402816;19;1694;-56
2022/05/06 12:44:17;;;;;;;;;;;;;;;19.56;51.38;101549.63;7404563;19;1738;-60
2022/05/06 12:46:48;;;;;;;;;;;;;;;19.50;50.89;101548.28;7403390;19;1390;-56
2022/05/06 12:51:57;;;;;;;;;;;;;;;19.53;51.16;101557.91;7403658;19;1607;-60
2022/05/06 12:54:26;;;;;;;;;;;;;;;19.52;50.88;101556.19;7403096;19;1867;-56
2022/05/06 12:56:55;;;;;;;;;;;;;;;19.47;50.36;101549.34;7405880;19;1541;-56
2022/05/06 12:59:23;;;;;;;;;;;;;;;19.49;50.15;101535.81;7410962;19;1608;-56
2022/05/06 13:01:54;;;;;;;;;;;;;;;19.46;49.47;101536.94;7409021;19;1423;-60
2022/05/06 13:04:23;;;;;;;;;;;;;;;19.48;50.72;101553.75;7410415;19;1349;-56
2022/05/06 13:06:51;;;;;;;;;;;;;;;19.49;49.92;101549.25;7410006;19;1425;-56
2022/05/06 13:09:19;;;;;;;;;;;;;;;19.47;50.43;101565.44;7407834;19;1670;-56
2022/05/06 13:11:48;;;;;;;;;;;;;;;19.47;50.69;101540.47;7410672;19;1512;-60
2022/05/06 13:14:16;;;;;;;;;;;;;;;19.47;50.28;101538.63;7410629;19;1592;-56
2022/05/06 13:16:44;;;;;;;;;;;;;;;19.45;50.33;101535.22;7407306;19;1842;-59
2022/05/06 13:19:15;;;;;;;;;;;;;;;19.47;49.88;101537.78;7410949;19;1532;-60
2022/05/06 13:21:43;;;;;;;;;;;;;;;19.47;50.07;101532.41;7408587;19;1390;-60
2022/05/06 13:24:12;;;;;;;;;;;;;;;19.45;49.90;101542.41;7409026;19;1437;-56
2022/05/06 13:26:41;;;;;;;;;;;;;;;19.45;50.49;101539.72;7409675;19;1528;-60
2022/05/06 13:29:11;;;;;;;;;;;;;;;19.43;49.91;101534.47;7409570;19;1541;-56
2022/05/06 13:31:40;;;;;;;;;;;;;;;19.43;51.08;101530.94;7408614;19;1488;-56
2022/05/06 13:34:08;;;;;;;;;;;;;;;19.41;49.68;101522.16;7409032;19;1354;-60
2022/05/06 13:36:40;;;;;;;;;;;;;;;19.38;49.05;101512.53;7403824;19;1842;-60
2022/05/06 13:39:08;;;;;;;;;;;;;;;19.38;49.35;101509.84;7409059;19;1358;-60
2022/05/06 13:41:36;;;;;;;;;;;;;;;19.39;49.83;101511.53;7409591;19;1286;-60
2022/05/06 13:44:05;;;;;;;;;;;;;;;19.41;49.77;101523.00;7409346;19;1753;-57
2022/05/06 13:46:33;;;;;;;;;;;;;;;19.41;49.12;101523.00;7406930;19;1504;-56
2022/05/06 13:49:03;;;;;;;;;;;;;;;19.38;48.87;101509.84;7408431;19;1275;-56
2022/05/06 13:51:31;;;;;;;;;;;;;;;19.40;49.40;101507.91;7408231;19;1356;-56
2022/05/06 13:54:02;;;;;;;;;;;;;;;19.37;50.08;101500.09;7408382;19;1319;-60
2022/05/06 13:59:14;;;;;;;;;;;;;;;19.38;49.60;101512.53;7407298;19;1421;-60
2022/05/06 14:01:43;;;;;;;;;;;;;;;19.37;48.46;101505.44;7405627;19;1399;-58
2022/05/06 14:04:11;;;;;;;;;;;;;;;19.37;48.89;101507.28;7406152;19;1294;-57
2022/05/06 14:06:40;;;;;;;;;;;;;;;19.37;48.26;101510.81;7405182;19;1322;-60
2022/05/06 14:09:12;;;;;;;;;;;;;;;19.32;48.39;101494.25;7402725;19;1128;-56
2022/05/06 14:11:40;;;;;;;;;;;;;;;19.31;48.55;101500.56;7408901;19;1614;-56
2022/05/06 14:14:09;;;;;;;;;;;;;;;19.34;48.19;101497.66;7407069;19;1805;-56
2022/05/06 14:16:37;;;;;;;;;;;;;;;19.34;47.93;101505.72;7404942;19;1914;-60
2022/05/06 14:19:05;;;;;;;;;;;;;;;19.35;47.32;101501.19;7408709;19;1325;-60
2022/05/06 14:21:34;;;;;;;;;;;;;;;19.33;48.13;101493.25;7405872;19;1686;-60
2022/05/06 14:24:02;;;;;;;;;;;;;;;19.32;48.21;101479.97;7406811;19;1762;-60
2022/05/06 14:26:33;;;;;;;;;;;;;;;19.31;48.03;101489.84;7406353;19;1626;-60
2022/05/06 14:29:01;;;;;;;;;;;;;;;19.32;47.59;101496.06;7405863;19;1259;-56
2022/05/06 14:31:30;;;;;;;;;;;;;;;19.36;47.76;101501.06;7405135;19;1519;-60
2022/05/06 14:33:58;;;;;;;;;;;;;;;19.30;48.00;101487.28;7408022;19;1599;-56
2022/05/06 14:36:26;;;;;;;;;;;;;;;19.32;47.92;101496.94;7404200;19;1886;-60
2022/05/06 14:38:55;;;;;;;;;;;;;;;19.33;47.75;101503.13;7405650;19;1357;-56
2022/05/06 14:41:23;;;;;;;;;;;;;;;19.32;47.85;101488.88;7407258;19;1476;-57
2022/05/06 14:43:54;;;;;;;;;;;;;;;19.33;47.54;101487.88;7406253;19;1492;-60
2022/05/06 14:46:22;;;;;;;;;;;;;;;19.29;47.91;101467.66;7407273;19;1326;-56
2022/05/06 14:48:51;;;;;;;;;;;;;;;19.31;49.06;101476.44;7406104;19;1246;-56
2022/05/06 14:51:19;;;;;;;;;;;;;;;19.32;47.71;101469.22;7407218;19;1544;-57
2022/05/06 14:53:48;;;;;;;;;;;;;;;19.33;47.57;101473.63;7406750;19;1540;-60
2022/05/06 14:56:18;;;;;;;;;;;;;;;19.29;47.76;101464.97;7405881;19;1853;-60
2022/05/06 14:58:46;;;;;;;;;;;;;;;19.29;47.38;101462.28;7406129;19;1757;-56
2022/05/06 15:01:17;;;;;;;;;;;;;;;19.28;47.63;101474.00;7402592;19;1578;-60
2022/05/06 15:03:45;;;;;;;;;;;;;;;19.28;47.90;101468.66;7406349;19;1548;-60
2022/05/06 15:06:14;;;;;;;;;;;;;;;19.31;47.95;101467.53;7405045;19;1377;-56
2022/05/06 15:08:42;;;;;;;;;;;;;;;19.28;47.73;101464.13;7405391;19;1391;-57
2022/05/06 15:11:11;;;;;;;;;;;;;;;19.34;47.29;101464.59;7406679;19;1771;-56
2022/05/06 15:13:39;;;;;;;;;;;;;;;19.36;46.88;101473.38;7404767;19;1643;-60
2022/05/06 15:16:08;;;;;;;;;;;;;;;19.34;46.20;101453.88;7404130;19;1869;-57
2022/05/06 15:21:20;;;;;;;;;;;;;;;19.28;46.60;101447.19;7403536;19;1358;-60
2022/05/06 15:23:49;;;;;;;;;;;;;;;19.29;47.17;101443.53;7401472;19;1184;-56
2022/05/06 15:26:18;;;;;;;;;;;;;;;19.27;47.16;101450.84;7404773;19;1884;-60
2022/05/06 15:28:47;;;;;;;;;;;;;;;19.28;47.27;101452.56;7405152;19;1546;-60
2022/05/06 15:31:15;;;;;;;;;;;;;;;19.28;46.93;101447.19;7401688;19;1497;-56
2022/05/06 15:33:46;;;;;;;;;;;;;;;19.31;47.52;101457.66;7402788;19;1450;-57
2022/05/06 15:36:14;;;;;;;;;;;;;;;19.35;46.31;101453.75;7403777;19;1863;-61
2022/05/06 15:38:43;;;;;;;;;;;;;;;19.31;45.91;101436.22;7402632;19;1291;-60
2022/05/06 15:41:12;;;;;;;;;;;;;;;19.31;45.60;101441.56;7401180;19;1686;-60
2022/05/06 15:43:40;;;;;;;;;;;;;;;19.32;45.27;101448.66;7403785;19;1381;-59
2022/05/06 15:46:09;;;;;;;;;;;;;;;19.28;46.32;101447.19;7405019;19;1430;-56
2022/05/06 15:48:40;;;;;;;;;;;;;;;19.29;45.78;101443.53;7404489;19;1342;-60
2022/05/06 15:51:12;;;;;;;;;;;;;;;19.26;46.16;101447.31;7402744;19;1290;-56
2022/05/06 15:53:41;;;;;;;;;;;;;;;19.26;46.64;101443.78;7404138;19;1330;-56
2022/05/06 15:56:09;;;;;;;;;;;;;;;19.25;45.57;101455.47;7402819;19;1867;-56
2022/05/06 15:58:38;;;;;;;;;;;;;;;19.26;45.27;101450.00;7402211;19;1388;-60
2022/05/06 16:01:06;;;;;;;;;;;;;;;19.26;44.46;101444.63;7402469;19;1509;-59
2022/05/06 16:03:35;;;;;;;;;;;;;;;19.25;44.21;101458.16;7405431;19;1392;-60
2022/05/06 16:06:03;;;;;;;;;;;;;;;19.24;44.52;101451.09;7402700;19;1505;-56
2022/05/06 16:08:34;;;;;;;;;;;;;;;19.23;44.94;101446.69;7399742;19;1402;-58
2022/05/06 16:11:02;;;;;;;;;;;;;;;19.24;45.04;101456.44;7402099;19;1480;-56
2022/05/06 16:13:30;;;;;;;;;;;;;;;19.21;44.89;101456.69;7403356;19;1327;-60
2022/05/06 16:15:59;;;;;;;;;;;;;;;19.20;44.87;101439.75;7403482;19;1834;-56
2022/05/06 16:18:27;;;;;;;;;;;;;;;19.20;45.11;101449.59;7400829;19;1694;-56
2022/05/06 16:20:56;;;;;;;;;;;;;;;19.21;45.32;101457.53;7399010;19;1270;-56
2022/05/06 16:23:24;;;;;;;;;;;;;;;19.19;45.67;101447.91;7398177;19;1505;-60
2022/05/06 16:25:55;;;;;;;;;;;;;;;19.17;45.90;101445.34;7398690;19;1386;-56
2022/05/06 16:28:23;;;;;;;;;;;;;;;19.17;45.74;101449.84;7399546;19;1357;-56
2022/05/06 16:30:52;;;;;;;;;;;;;;;19.17;46.36;101444.50;7399663;19;1304;-60
2022/05/06 16:33:20;;;;;;;;;;;;;;;19.19;47.00;101448.75;7410224;19;1614;-64
2022/05/06 16:38:32;;;;;;;;;;;;;;;19.17;46.42;101439.97;7410055;19;1279;-58
2022/05/06 16:41:03;;;;;;;;;;;;;;;19.16;46.59;101449.00;7410950;19;1385;-57
2022/05/06 16:43:32;;;;;;;;;;;;;;;19.11;47.18;101435.09;7409248;19;1389;-58
2022/05/06 16:46:00;;;;;;;;;;;;;;;19.11;47.87;101444.97;7411478;19;1548;-58
2022/05/06 16:48:29;;;;;;;;;;;;;;;19.07;47.22;101439.84;7410981;19;1571;-58
2022/05/06 16:50:57;;;;;;;;;;;;;;;19.02;45.89;101452.75;7410716;19;1569;-58
2022/05/06 16:53:26;;;;;;;;;;;;;;;19.14;48.05;101448.28;7410298;19;1666;-58
2022/05/06 16:55:54;;;;;;;;;;;;;;;19.12;46.52;101458.25;7410102;19;1859;-58
2022/05/06 16:58:25;;;;;;;;;;;;;;;19.02;46.09;101454.56;7409793;19;1576;-58
2022/05/06 17:00:54;;;;;;;;;;;;;;;19.02;45.75;101451.88;7410523;19;1618;-58
2022/05/06 17:03:22;;;;;;;;;;;;;;;18.95;45.20;101450.66;7411760;19;1029;-58
2022/05/06 17:05:51;;;;;;;;;;;;;;;18.94;45.19;101455.19;7410672;19;1686;-58
2022/05/06 17:08:19;;;;;;;;;;;;;;;18.92;44.68;101451.78;7408660;19;1894;-58
2022/05/06 17:10:48;;;;;;;;;;;;;;;18.91;44.48;101438.47;7410237;19;1681;-58
2022/05/06 17:13:16;;;;;;;;;;;;;;;18.93;44.78;101453.47;7409884;19;1290;-58
2022/05/06 17:15:47;;;;;;;;;;;;;;;18.90;44.90;101445.69;7410191;19;1441;-58
2022/05/06 17:18:15;;;;;;;;;;;;;;;18.89;45.04;101446.63;7407381;19;1860;-58
2022/05/06 17:20:44;;;;;;;;;;;;;;;18.91;44.51;101455.41;7408938;19;1643;-59
2022/05/06 17:23:12;;;;;;;;;;;;;;;18.87;44.67;101460.16;7408966;19;1319;-58
2022/05/06 17:25:43;;;;;;;;;;;;;;;18.88;44.98;101469.06;7408129;19;1303;-58
2022/05/06 17:28:11;;;;;;;;;;;;;;;18.82;44.33;101450.75;7410104;19;1675;-58
2022/05/06 17:30:40;;;;;;;;;;;;;;;18.82;44.57;101458.78;7408030;19;1548;-58
2022/05/06 17:33:11;;;;;;;;;;;;;;;18.86;45.00;101460.25;7410040;19;1556;-58
2022/05/06 17:35:39;;;;;;;;;;;;;;;18.96;46.10;101463.97;7409335;19;1390;-58
2022/05/06 17:38:07;;;;;;;;;;;;;;;18.92;44.85;101456.25;7407010;19;1853;-58
2022/05/06 17:40:36;;;;;;;;;;;;;;;18.90;44.90;101459.06;7408219;19;1434;-58
2022/05/06 17:43:04;;;;;;;;;;;;;;;18.91;46.59;101458.09;7407059;19;1267;-58
2022/05/06 17:45:32;;;;;;;;;;;;;;;18.92;47.20;101457.13;7408373;19;1361;-57
2022/05/06 17:48:01;;;;;;;;;;;;;;;18.95;48.80;101456.88;7408031;19;1718;-57
2022/05/06 17:50:33;;;;;;;;;;;;;;;19.05;47.02;101467.75;7409345;19;1488;-60
2022/05/06 17:53:01;;;;;;;;;;;;;;;19.13;47.63;101469.84;7408436;19;1576;-61
2022/05/06 17:55:31;;;;;;;;;;;;;;;19.18;47.88;101478.34;7407944;19;1278;-59
2022/05/06 17:57:59;;;;;;;;;;;;;;;19.16;48.28;101472.25;7405949;19;1867;-60
2022/05/06 18:03:08;;;;;;;;;;;;;;;19.15;48.88;101470.56;7406375;19;1491;-60
2022/05/06 18:05:41;;;;;;;;;;;;;;;19.25;49.71;101468.88;7406189;19;1436;-60
2022/05/06 18:08:09;;;;;;;;;;;;;;;19.22;49.65;101469.13;7406357;19;1434;-56